Time;durP1;ratioP1;P1;durP2;ratioP2;P2;SDS_P1;SDS_P2;PMS_P1;PMS_P2;Temp;Humidity;BMP_temperature;BMP_pressure;BME280_temperature;BME280_humidity;BME280_pressure;Samples;Min_cycle;Max_cycle;Signal;HPM_P1;HPM_P2
2023/07/11 00:00:56;;;;;;;6.13;2.90;;;19.40;99.90;;;;;;5068305;28;20109;-58
2023/07/11 00:03:22;;;;;;;8.13;3.50;;;19.40;99.90;;;;;;5067334;28;20551;-58
2023/07/11 00:06:03;;;;;;;7.20;3.40;;;19.40;99.90;;;;;;5071155;28;20036;-58
2023/07/11 00:08:28;;;;;;;8.73;3.17;;;19.40;99.90;;;;;;5076624;28;20029;-58
2023/07/11 00:10:54;;;;;;;9.00;3.30;;;19.30;99.90;;;;;;5075272;28;20335;-58
2023/07/11 00:13:19;;;;;;;10.65;3.70;;;19.30;99.90;;;;;;5067695;28;20048;-58
2023/07/11 00:15:58;;;;;;;5.35;2.85;;;19.40;99.90;;;;;;5069098;28;20040;-58
2023/07/11 00:18:24;;;;;;;6.47;3.42;;;19.30;99.90;;;;;;5062222;28;20588;-58
2023/07/11 00:20:50;;;;;;;8.65;3.60;;;19.20;99.90;;;;;;5063346;28;20131;-58
2023/07/11 00:23:15;;;;;;;7.20;3.30;;;19.20;99.90;;;;;;5066728;28;20028;-58
2023/07/11 00:25:41;;;;;;;5.60;3.20;;;19.20;99.90;;;;;;5047508;28;20029;-58
2023/07/11 00:28:06;;;;;;;7.05;3.13;;;19.20;99.90;;;;;;5047422;28;20492;-58
2023/07/11 00:30:32;;;;;;;6.03;3.28;;;19.30;99.90;;;;;;5051014;28;20413;-59
2023/07/11 00:32:58;;;;;;;7.63;3.30;;;19.30;99.90;;;;;;5066717;28;20389;-58
2023/07/11 00:35:23;;;;;;;7.15;3.50;;;19.30;99.90;;;;;;5060801;28;20092;-58
2023/07/11 00:37:49;;;;;;;8.45;3.45;;;19.30;99.90;;;;;;5068901;28;20041;-58
2023/07/11 00:40:14;;;;;;;8.50;3.60;;;19.20;99.90;;;;;;5068102;28;20727;-58
2023/07/11 00:42:41;;;;;;;5.88;3.28;;;19.20;99.90;;;;;;5064940;28;20563;-58
2023/07/11 00:45:45;;;;;;;5.75;3.08;;;19.30;99.90;;;;;;5065209;28;20052;-58
2023/07/11 00:48:11;;;;;;;7.53;2.80;;;19.20;99.90;;;;;;5067888;28;20037;-58
2023/07/11 00:50:39;;;;;;;8.38;3.13;;;19.20;99.90;;;;;;5058672;28;20025;-58
2023/07/11 00:53:06;;;;;;;6.60;3.05;;;19.20;99.90;;;;;;5066012;28;20563;-58
2023/07/11 00:55:32;;;;;;;7.88;3.20;;;19.20;99.90;;;;;;5044055;28;20036;-58
2023/07/11 00:57:58;;;;;;;5.45;3.08;;;19.30;99.90;;;;;;5072835;28;20219;-58
2023/07/11 01:00:24;;;;;;;5.72;2.85;;;19.30;99.90;;;;;;5071613;28;20028;-58
2023/07/11 01:02:50;;;;;;;5.90;2.90;;;19.20;99.90;;;;;;5066069;28;20082;-58
2023/07/11 01:05:15;;;;;;;6.88;2.97;;;19.10;99.90;;;;;;5063856;28;20447;-58
2023/07/11 01:07:41;;;;;;;5.78;3.00;;;19.20;99.90;;;;;;5057444;28;20419;-58
2023/07/11 01:10:07;;;;;;;5.05;3.20;;;19.10;99.90;;;;;;5065336;28;20029;-58
2023/07/11 01:12:34;;;;;;;7.40;3.40;;;19.10;99.90;;;;;;5065555;28;20089;-58
2023/07/11 01:14:59;;;;;;;6.18;2.78;;;19.10;99.90;;;;;;5048903;28;20037;-58
2023/07/11 01:17:32;;;;;;;8.60;3.10;;;19.10;99.90;;;;;;5069462;28;20043;-58
2023/07/11 01:19:59;;;;;;;5.23;2.80;;;19.00;99.90;;;;;;5078535;28;20040;-58
2023/07/11 01:22:28;;;;;;;5.20;2.95;;;19.00;99.90;;;;;;5065358;28;20124;-58
2023/07/11 01:24:56;;;;;;;5.70;2.90;;;19.00;99.90;;;;;;5065541;28;20573;-58
2023/07/11 01:27:22;;;;;;;5.78;2.88;;;18.90;99.90;;;;;;5072343;28;20101;-58
2023/07/11 01:29:49;;;;;;;5.97;3.20;;;18.90;99.90;;;;;;5065497;28;20544;-58
2023/07/11 01:32:15;;;;;;;7.40;3.42;;;18.90;99.90;;;;;;5065137;28;20163;-59
2023/07/11 01:34:41;;;;;;;4.70;3.03;;;19.00;99.90;;;;;;5059094;28;20064;-58
2023/07/11 01:37:07;;;;;;;5.72;3.10;;;19.00;99.90;;;;;;5062894;28;20033;-58
2023/07/11 01:39:33;;;;;;;6.75;3.22;;;18.90;99.90;;;;;;5074248;28;20028;-58
2023/07/11 01:41:59;;;;;;;7.80;3.10;;;18.90;99.90;;;;;;5067024;28;20527;-58
2023/07/11 01:44:25;;;;;;;6.22;3.28;;;18.90;99.90;;;;;;5067758;28;20028;-58
2023/07/11 01:46:50;;;;;;;5.45;2.70;;;19.00;99.90;;;;;;5068222;28;20090;-59
2023/07/11 01:49:16;;;;;;;6.95;3.05;;;18.80;99.90;;;;;;5065643;28;20048;-58
2023/07/11 01:51:45;;;;;;;6.70;3.00;;;19.00;99.90;;;;;;5067119;28;20099;-58
2023/07/11 01:54:12;;;;;;;5.53;3.00;;;19.00;99.90;;;;;;5063906;28;20040;-58
2023/07/11 01:56:37;;;;;;;8.10;2.88;;;19.00;99.90;;;;;;5066428;28;20043;-58
2023/07/11 01:59:03;;;;;;;6.13;3.00;;;19.00;99.90;;;;;;5066078;28;20029;-58
2023/07/11 02:01:28;;;;;;;6.82;3.38;;;19.00;99.90;;;;;;5065781;28;20440;-59
2023/07/11 02:03:54;;;;;;;7.07;3.22;;;19.00;99.90;;;;;;5066586;28;20040;-58
2023/07/11 02:06:20;;;;;;;9.15;3.40;;;19.10;99.90;;;;;;5066385;28;20024;-58
2023/07/11 02:08:46;;;;;;;7.57;3.40;;;19.10;99.90;;;;;;5066047;28;20041;-58
2023/07/11 02:11:11;;;;;;;6.75;3.38;;;19.20;99.90;;;;;;5065452;28;20063;-59
2023/07/11 02:13:37;;;;;;;9.65;3.58;;;19.00;99.90;;;;;;5066467;28;20056;-59
2023/07/11 02:16:03;;;;;;;7.05;3.90;;;19.10;99.90;;;;;;5065882;28;20437;-58
2023/07/11 02:18:29;;;;;;;7.82;3.45;;;19.10;99.90;;;;;;5068962;28;20440;-58
2023/07/11 02:20:56;;;;;;;8.55;3.85;;;19.10;99.90;;;;;;5070308;28;20037;-58
2023/07/11 02:23:21;;;;;;;6.38;3.75;;;19.00;99.90;;;;;;5056364;28;20040;-58
2023/07/11 02:25:47;;;;;;;10.65;4.05;;;19.00;99.90;;;;;;5059210;28;20078;-58
2023/07/11 02:28:13;;;;;;;10.98;4.25;;;19.10;99.90;;;;;;5057902;28;20025;-58
2023/07/11 02:30:38;;;;;;;7.22;3.80;;;19.10;99.90;;;;;;5054356;28;20182;-58
2023/07/11 02:33:04;;;;;;;7.68;3.83;;;19.10;99.90;;;;;;5065239;28;20041;-58
2023/07/11 02:35:30;;;;;;;9.70;4.07;;;19.10;99.90;;;;;;5078475;28;20032;-58
2023/07/11 02:37:56;;;;;;;10.25;3.75;;;19.00;99.90;;;;;;5076077;28;20052;-58
2023/07/11 02:40:21;;;;;;;7.90;3.70;;;19.00;99.90;;;;;;5068615;28;20067;-58
2023/07/11 02:42:47;;;;;;;7.65;3.55;;;19.00;99.90;;;;;;5065265;28;20025;-58
2023/07/11 02:45:14;;;;;;;10.60;4.25;;;19.10;99.90;;;;;;5054032;28;20443;-58
2023/07/11 02:47:39;;;;;;;6.75;3.80;;;19.20;99.90;;;;;;5069513;28;20032;-58
2023/07/11 02:50:06;;;;;;;9.38;3.70;;;19.00;99.90;;;;;;5069070;28;20078;-58
2023/07/11 02:52:34;;;;;;;8.95;4.00;;;19.00;99.90;;;;;;5069644;28;20036;-58
2023/07/11 02:55:00;;;;;;;7.90;3.72;;;19.00;99.90;;;;;;5067077;28;20863;-58
2023/07/11 02:57:25;;;;;;;9.63;3.72;;;18.90;99.90;;;;;;5067997;28;20051;-58
2023/07/11 02:59:51;;;;;;;9.50;3.67;;;19.00;99.90;;;;;;5069352;28;20256;-58
2023/07/11 03:02:16;;;;;;;4.93;3.80;;;19.10;99.90;;;;;;5062772;28;20040;-58
2023/07/11 03:04:42;;;;;;;9.73;3.80;;;19.00;99.90;;;;;;5075657;28;20104;-59
2023/07/11 03:07:08;;;;;;;6.78;3.92;;;18.90;99.90;;;;;;5074418;28;20032;-58
2023/07/11 03:09:34;;;;;;;7.22;3.95;;;18.90;99.90;;;;;;5070046;28;20040;-58
2023/07/11 03:12:00;;;;;;;9.50;4.10;;;18.90;99.90;;;;;;5069618;28;20040;-58
2023/07/11 03:14:26;;;;;;;7.72;3.67;;;18.70;99.90;;;;;;5068771;28;20032;-58
2023/07/11 03:16:52;;;;;;;7.63;3.70;;;18.80;99.90;;;;;;5064745;28;20545;-58
2023/07/11 03:19:20;;;;;;;8.13;4.10;;;18.80;99.90;;;;;;5068644;28;20059;-58
2023/07/11 03:21:46;;;;;;;9.25;4.25;;;18.70;99.90;;;;;;5069258;28;20040;-58
2023/07/11 03:24:11;;;;;;;8.27;3.92;;;18.70;99.90;;;;;;5068812;28;20036;-58
2023/07/11 03:26:37;;;;;;;6.53;3.92;;;18.70;99.90;;;;;;5067598;28;20059;-58
2023/07/11 03:29:03;;;;;;;8.02;4.05;;;18.70;99.90;;;;;;5067295;28;20043;-58
2023/07/11 03:31:28;;;;;;;7.32;3.72;;;18.60;99.90;;;;;;5068915;28;20093;-58
2023/07/11 03:33:54;;;;;;;7.55;3.95;;;18.60;99.90;;;;;;5069064;28;20048;-58
2023/07/11 03:36:20;;;;;;;7.43;4.10;;;18.50;99.90;;;;;;5068252;28;20032;-58
2023/07/11 03:38:46;;;;;;;10.27;4.50;;;18.50;99.90;;;;;;5068190;28;20043;-59
2023/07/11 03:41:12;;;;;;;7.07;3.95;;;18.60;99.90;;;;;;5068266;28;20037;-59
2023/07/11 03:43:38;;;;;;;9.75;4.38;;;18.60;99.90;;;;;;5068470;28;20032;-58
2023/07/11 03:46:04;;;;;;;6.90;3.67;;;18.60;99.90;;;;;;5068470;28;20451;-59
2023/07/11 03:48:29;;;;;;;9.70;4.05;;;18.70;99.90;;;;;;5068352;28;20514;-59
2023/07/11 03:50:55;;;;;;;8.65;4.15;;;18.60;99.90;;;;;;5068403;28;20039;-58
2023/07/11 03:53:20;;;;;;;10.48;4.13;;;18.60;99.90;;;;;;5067575;28;20029;-58
2023/07/11 03:55:46;;;;;;;13.48;4.20;;;18.80;99.90;;;;;;5068222;28;20033;-59
2023/07/11 03:58:12;;;;;;;9.55;4.22;;;18.80;99.90;;;;;;5067161;28;20037;-58
2023/07/11 04:00:38;;;;;;;7.10;3.60;;;18.90;99.90;;;;;;5067556;28;20048;-59
2023/07/11 04:03:04;;;;;;;6.25;3.40;;;18.90;99.90;;;;;;5067943;28;20029;-58
2023/07/11 04:05:30;;;;;;;8.20;4.32;;;18.90;99.90;;;;;;5065404;28;20119;-58
2023/07/11 04:07:56;;;;;;;7.22;3.78;;;19.00;99.90;;;;;;5062978;28;20126;-58
2023/07/11 04:10:22;;;;;;;8.35;3.47;;;19.10;99.90;;;;;;5063855;28;20138;-58
2023/07/11 04:12:47;;;;;;;7.07;3.75;;;19.00;99.90;;;;;;5054719;28;20567;-58
2023/07/11 04:15:13;;;;;;;9.90;3.75;;;19.10;99.90;;;;;;5049493;28;20033;-58
2023/07/11 04:17:39;;;;;;;7.90;3.60;;;19.20;99.90;;;;;;5067746;28;20393;-58
2023/07/11 04:20:05;;;;;;;7.50;3.58;;;19.20;99.90;;;;;;5068098;28;20055;-58
2023/07/11 04:22:31;;;;;;;6.32;3.65;;;19.20;99.90;;;;;;5066461;28;20585;-58
2023/07/11 04:24:57;;;;;;;7.75;3.60;;;19.30;99.90;;;;;;5067764;28;20128;-59
2023/07/11 04:27:24;;;;;;;8.52;3.67;;;19.40;99.90;;;;;;5067386;28;20111;-58
2023/07/11 04:29:49;;;;;;;6.55;3.17;;;19.40;99.90;;;;;;5067503;28;20032;-58
2023/07/11 04:32:15;;;;;;;7.30;3.60;;;19.40;99.90;;;;;;5067136;28;20037;-58
2023/07/11 04:34:40;;;;;;;7.57;3.50;;;19.40;99.90;;;;;;5055017;28;20044;-59
2023/07/11 04:37:06;;;;;;;7.60;3.38;;;19.50;99.90;;;;;;5047264;28;20141;-58
2023/07/11 04:39:32;;;;;;;11.18;3.80;;;19.50;99.90;;;;;;5063867;28;20116;-59
2023/07/11 04:41:57;;;;;;;9.15;3.50;;;19.50;99.90;;;;;;5067630;28;20094;-58
2023/07/11 04:44:23;;;;;;;6.65;3.45;;;19.60;99.90;;;;;;5066366;28;20190;-58
2023/07/11 04:46:48;;;;;;;7.65;3.58;;;19.70;99.90;;;;;;5068202;28;20033;-58
2023/07/11 04:49:14;;;;;;;7.43;3.67;;;19.80;99.90;;;;;;5066657;28;20052;-58
2023/07/11 04:51:40;;;;;;;6.78;3.20;;;19.90;99.90;;;;;;5067595;28;20036;-58
2023/07/11 04:54:06;;;;;;;7.88;3.35;;;19.90;99.90;;;;;;5063045;28;20036;-60
2023/07/11 04:56:31;;;;;;;7.93;3.60;;;19.90;99.90;;;;;;5068780;28;20639;-60
2023/07/11 04:58:59;;;;;;;8.27;3.60;;;20.00;99.90;;;;;;5072864;28;20032;-60
2023/07/11 05:01:24;;;;;;;7.13;3.70;;;20.00;99.90;;;;;;5066810;28;20523;-60
2023/07/11 05:03:50;;;;;;;6.70;3.90;;;20.10;99.90;;;;;;5067108;28;20068;-60
2023/07/11 05:06:16;;;;;;;8.57;3.42;;;20.20;99.90;;;;;;5065572;28;20063;-60
2023/07/11 05:08:42;;;;;;;6.53;3.45;;;20.20;99.90;;;;;;5065634;28;20111;-60
2023/07/11 05:11:17;;;;;;;7.72;3.30;;;20.30;99.90;;;;;;5065588;28;20033;-60
2023/07/11 05:13:45;;;;;;;8.98;3.42;;;20.30;99.90;;;;;;5065438;28;20028;-60
2023/07/11 05:16:17;;;;;;;8.77;3.78;;;20.40;99.90;;;;;;5065309;28;20115;-60
2023/07/11 05:18:44;;;;;;;7.18;3.50;;;20.40;99.90;;;;;;5065117;28;20036;-60
2023/07/11 05:21:11;;;;;;;8.20;3.50;;;20.70;99.90;;;;;;5065165;28;20077;-60
2023/07/11 05:23:37;;;;;;;6.25;3.83;;;20.70;99.90;;;;;;5065972;28;20112;-60
2023/07/11 05:26:03;;;;;;;8.93;3.60;;;20.70;99.90;;;;;;5060045;28;20548;-60
2023/07/11 05:28:32;;;;;;;6.40;3.47;;;20.80;99.90;;;;;;5055689;28;20136;-60
2023/07/11 05:31:01;;;;;;;7.10;3.50;;;20.90;99.90;;;;;;5065414;28;20036;-60
2023/07/11 05:33:27;;;;;;;9.35;3.78;;;20.90;99.90;;;;;;5062517;28;20036;-60
2023/07/11 05:36:13;;;;;;;9.27;3.50;;;21.10;99.90;;;;;;5074763;28;20380;-60
2023/07/11 05:38:39;;;;;;;8.48;3.88;;;21.20;99.90;;;;;;5066343;28;20696;-60
2023/07/11 05:41:04;;;;;;;8.23;3.63;;;21.40;99.90;;;;;;5072771;28;20060;-60
2023/07/11 05:43:30;;;;;;;12.45;3.88;;;21.40;99.90;;;;;;5063507;28;20074;-60
2023/07/11 05:45:56;;;;;;;7.47;3.83;;;21.50;99.90;;;;;;5066885;28;20052;-60
2023/07/11 05:48:21;;;;;;;9.25;3.42;;;21.70;99.90;;;;;;5065353;28;20055;-60
2023/07/11 05:51:00;;;;;;;8.85;3.75;;;21.70;99.90;;;;;;5066469;28;20029;-60
2023/07/11 05:53:26;;;;;;;7.32;3.35;;;21.80;99.90;;;;;;5061867;28;20041;-59
2023/07/11 05:55:52;;;;;;;8.88;4.93;;;21.80;99.90;;;;;;5060526;28;20162;-62
2023/07/11 05:58:18;;;;;;;14.18;10.18;;;21.90;99.90;;;;;;5067334;28;20033;-61
2023/07/11 06:00:44;;;;;;;9.75;4.22;;;21.80;99.90;;;;;;5068781;28;20037;-60
2023/07/11 06:03:09;;;;;;;8.65;3.38;;;22.00;99.90;;;;;;5059711;28;20036;-60
2023/07/11 06:05:35;;;;;;;7.03;3.28;;;22.00;99.90;;;;;;5056626;28;20132;-60
2023/07/11 06:08:01;;;;;;;7.32;2.85;;;22.20;99.90;;;;;;5069136;28;20040;-60
2023/07/11 06:10:26;;;;;;;6.15;3.28;;;22.20;99.90;;;;;;5070196;28;20035;-60
2023/07/11 06:12:52;;;;;;;5.43;2.90;;;22.30;99.90;;;;;;5069840;28;20036;-60
2023/07/11 06:15:17;;;;;;;8.32;2.80;;;22.40;99.90;;;;;;5069050;28;20032;-60
2023/07/11 06:17:43;;;;;;;6.13;2.92;;;22.40;99.90;;;;;;5069776;28;20186;-60
2023/07/11 06:20:09;;;;;;;8.48;2.80;;;22.50;99.90;;;;;;5069035;28;20579;-60
2023/07/11 06:22:35;;;;;;;8.60;2.88;;;22.60;99.90;;;;;;5063942;28;20103;-60
2023/07/11 06:25:02;;;;;;;6.20;2.90;;;22.80;99.90;;;;;;5067186;28;20040;-60
2023/07/11 06:27:31;;;;;;;6.78;2.85;;;22.80;99.90;;;;;;5073812;28;20024;-60
2023/07/11 06:29:56;;;;;;;5.07;2.70;;;22.90;99.90;;;;;;5072214;28;20041;-60
2023/07/11 06:32:22;;;;;;;6.28;3.05;;;22.90;99.90;;;;;;5067861;28;20041;-60
2023/07/11 06:34:47;;;;;;;6.00;2.55;;;23.00;99.90;;;;;;5068544;28;20063;-60
2023/07/11 06:37:13;;;;;;;5.80;2.90;;;23.20;99.90;;;;;;5071975;28;20021;-60
2023/07/11 06:39:39;;;;;;;8.77;2.88;;;23.10;99.90;;;;;;5073507;28;20036;-60
2023/07/11 06:42:05;;;;;;;8.93;2.83;;;23.20;99.90;;;;;;5068976;28;20040;-60
2023/07/11 06:44:31;;;;;;;6.28;2.80;;;23.40;99.90;;;;;;5063507;28;20036;-60
2023/07/11 06:46:57;;;;;;;7.65;2.95;;;23.50;99.90;;;;;;5058116;28;20044;-60
2023/07/11 06:49:22;;;;;;;4.90;2.22;;;23.40;99.90;;;;;;5067605;28;20416;-60
2023/07/11 06:51:49;;;;;;;6.30;3.05;;;23.50;99.90;;;;;;5075333;28;20396;-60
2023/07/11 06:54:15;;;;;;;6.35;2.75;;;23.50;99.90;;;;;;5061593;28;20043;-60
2023/07/11 06:56:41;;;;;;;6.60;2.63;;;22.90;99.90;;;;;;5058208;28;20044;-60
2023/07/11 06:59:08;;;;;;;7.95;2.67;;;23.80;99.90;;;;;;5063350;28;20029;-60
2023/07/11 07:01:34;;;;;;;8.65;2.60;;;24.10;99.90;;;;;;5069969;28;20209;-60
2023/07/11 07:04:00;;;;;;;5.15;2.42;;;23.20;99.90;;;;;;5080949;28;20075;-60
2023/07/11 07:06:26;;;;;;;6.57;2.80;;;24.00;99.90;;;;;;5067376;28;20058;-60
2023/07/11 07:08:52;;;;;;;4.78;2.88;;;24.10;99.90;;;;;;5076526;28;20028;-60
2023/07/11 07:11:17;;;;;;;6.20;2.70;;;24.00;99.90;;;;;;5064374;28;20050;-60
2023/07/11 07:13:43;;;;;;;12.88;5.25;;;24.20;99.90;;;;;;5064297;28;20044;-60
2023/07/11 07:16:09;;;;;;;5.38;2.92;;;24.20;99.90;;;;;;5062272;28;20033;-60
2023/07/11 07:18:40;;;;;;;5.57;2.65;;;24.50;99.90;;;;;;5066854;28;20035;-60
2023/07/11 07:21:06;;;;;;;7.05;2.70;;;24.40;99.90;;;;;;5067268;28;20141;-60
2023/07/11 07:23:35;;;;;;;4.57;2.45;;;24.50;99.90;;;;;;5066633;28;20056;-60
2023/07/11 07:26:02;;;;;;;4.93;2.17;;;24.50;99.90;;;;;;5067509;28;20048;-60
2023/07/11 07:28:29;;;;;;;5.18;2.42;;;24.70;99.90;;;;;;5066353;28;20040;-60
2023/07/11 07:30:56;;;;;;;5.07;2.75;;;24.70;99.90;;;;;;5060378;28;20324;-60
2023/07/11 07:33:24;;;;;;;5.65;2.60;;;24.70;99.90;;;;;;5066147;28;20048;-60
2023/07/11 07:35:57;;;;;;;6.00;2.38;;;24.80;99.90;;;;;;5065799;28;20059;-60
2023/07/11 07:38:27;;;;;;;12.93;2.83;;;25.00;99.90;;;;;;5066236;28;20435;-60
2023/07/11 07:40:54;;;;;;;24.33;19.15;;;25.10;99.90;;;;;;5056126;28;20488;-60
2023/07/11 07:43:20;;;;;;;6.50;2.88;;;24.90;99.90;;;;;;5064009;28;20492;-60
2023/07/11 07:45:53;;;;;;;6.28;2.80;;;25.10;99.90;;;;;;5066136;28;20239;-60
2023/07/11 07:48:19;;;;;;;4.88;2.83;;;25.20;99.90;;;;;;5067011;28;20165;-60
2023/07/11 07:50:45;;;;;;;8.27;3.22;;;25.30;99.90;;;;;;5067580;28;20028;-60
2023/07/11 07:53:15;;;;;;;7.07;2.67;;;25.20;99.90;;;;;;5066432;28;20515;-60
2023/07/11 07:55:41;;;;;;;6.07;2.60;;;25.20;99.90;;;;;;5061970;28;20032;-60
2023/07/11 07:58:07;;;;;;;6.53;2.10;;;25.30;99.90;;;;;;5064724;28;20033;-60
2023/07/11 08:00:32;;;;;;;7.40;2.50;;;25.30;99.90;;;;;;5063629;28;20033;-60
2023/07/11 08:02:58;;;;;;;11.18;2.70;;;25.40;99.90;;;;;;5065044;28;20385;-60
2023/07/11 08:05:25;;;;;;;7.80;2.63;;;25.60;99.90;;;;;;5067125;28;20040;-60
2023/07/11 08:07:51;;;;;;;7.20;2.60;;;25.70;99.90;;;;;;5070143;28;20039;-60
2023/07/11 08:10:17;;;;;;;6.35;2.60;;;25.70;99.90;;;;;;5066502;28;20029;-60
2023/07/11 08:12:43;;;;;;;7.15;2.75;;;25.80;99.90;;;;;;5066412;28;20051;-60
2023/07/11 08:15:11;;;;;;;7.28;2.83;;;25.70;99.90;;;;;;5060648;28;20021;-60
2023/07/11 08:17:38;;;;;;;7.18;2.60;;;25.60;99.90;;;;;;5067488;28;20035;-60
2023/07/11 08:20:04;;;;;;;9.18;2.97;;;25.80;99.90;;;;;;5068701;28;20028;-60
2023/07/11 08:22:30;;;;;;;7.30;2.30;;;25.80;99.90;;;;;;5069137;28;20123;-60
2023/07/11 08:24:55;;;;;;;8.48;2.47;;;25.90;99.90;;;;;;5062941;28;20123;-60
2023/07/11 08:27:21;;;;;;;8.88;2.47;;;26.00;99.90;;;;;;5068834;28;20044;-60
2023/07/11 08:29:46;;;;;;;9.15;2.60;;;25.90;99.90;;;;;;5069217;28;20032;-60
2023/07/11 08:32:12;;;;;;;6.25;2.33;;;25.80;99.90;;;;;;5066258;28;20033;-60
2023/07/11 08:34:39;;;;;;;4.88;2.50;;;25.90;99.90;;;;;;5061076;28;20097;-60
2023/07/11 08:37:13;;;;;;;7.05;2.45;;;26.10;99.90;;;;;;5101331;27;20388;-59
2023/07/11 08:39:39;;;;;;;7.38;2.40;;;26.20;99.90;;;;;;5095135;27;20027;-59
2023/07/11 08:42:31;;;;;;;7.57;2.40;;;26.20;99.90;;;;;;5096736;27;20035;-59
2023/07/11 08:45:03;;;;;;;10.48;2.50;;;26.40;99.90;;;;;;5088075;28;20077;-59
2023/07/11 08:47:34;;;;;;;4.53;2.13;;;26.60;99.90;;;;;;5094462;27;20542;-59
2023/07/11 08:50:09;;;;;;;12.18;2.90;;;26.70;99.90;;;;;;5089544;27;20042;-60
2023/07/11 08:52:35;;;;;;;10.00;5.10;;;26.70;99.90;;;;;;5083053;27;20542;-60
2023/07/11 08:55:08;;;;;;;7.28;2.53;;;26.90;99.90;;;;;;5090963;27;20041;-60
2023/07/11 08:57:37;;;;;;;6.63;2.70;;;27.00;99.90;;;;;;5092945;27;20217;-59
2023/07/11 09:00:10;;;;;;;12.20;2.20;;;27.00;99.90;;;;;;5093303;27;20184;-60
2023/07/11 09:02:43;;;;;;;5.70;2.13;;;27.40;99.90;;;;;;5094880;27;20502;-60
2023/07/11 09:05:16;;;;;;;11.82;2.30;;;27.20;99.90;;;;;;5094315;27;20047;-60
2023/07/11 09:07:43;;;;;;;7.07;2.37;;;27.20;99.90;;;;;;5096970;27;20494;-60
2023/07/11 09:10:54;;;;;;;3.67;1.75;;;27.30;99.90;;;;;;5090836;27;20028;-60
2023/07/11 09:13:41;;;;;;;6.07;2.13;;;27.30;99.90;;;;;;5098539;27;20483;-60
2023/07/11 09:16:21;;;;;;;5.50;2.08;;;27.50;99.90;;;;;;5099764;27;20036;-60
2023/07/11 09:19:12;;;;;;;6.32;2.45;;;27.50;99.90;;;;;;5101950;27;20427;-60
2023/07/11 09:21:56;;;;;;;6.30;2.10;;;27.60;99.90;;;;;;5100973;27;20085;-60
2023/07/11 09:24:55;;;;;;;6.40;2.40;;;27.70;99.90;;;;;;5094971;27;20094;-59
2023/07/11 09:27:31;;;;;;;7.53;2.35;;;27.70;99.90;;;;;;5089308;27;20085;-60
2023/07/11 09:29:57;;;;;;;6.20;2.08;;;27.80;99.90;;;;;;5080839;27;20123;-60
2023/07/11 09:32:32;;;;;;;8.88;2.45;;;27.90;99.90;;;;;;5087438;27;20466;-59
2023/07/11 09:34:59;;;;;;;3.33;1.90;;;27.90;99.90;;;;;;5082322;27;20028;-59
2023/07/11 09:37:42;;;;;;;9.48;2.22;;;28.00;99.90;;;;;;5082039;27;20359;-59
2023/07/11 09:40:11;;;;;;;;;;;28.60;99.90;;;;;;5085291;27;20335;-60
2023/07/11 09:43:03;;;;;;;4.38;2.17;;;27.90;99.90;;;;;;5094080;27;19981;-60
2023/07/11 09:45:39;;;;;;;4.57;2.10;;;27.90;99.90;;;;;;5089853;27;20376;-59
2023/07/11 09:48:16;;;;;;;8.82;2.10;;;28.00;99.90;;;;;;5075754;27;20507;-59
2023/07/11 09:50:52;;;;;;;6.82;3.22;;;28.10;99.90;;;;;;5077294;28;20387;-59
2023/07/11 09:53:21;;;;;;;6.82;2.20;;;28.20;99.90;;;;;;5071413;28;20354;-59
2023/07/11 09:55:53;;;;;;;5.68;2.30;;;28.20;99.90;;;;;;5082222;27;20448;-59
2023/07/11 09:58:19;;;;;;;7.57;2.10;;;28.30;99.90;;;;;;5072726;27;20055;-59
2023/07/11 10:00:50;;;;;;;8.45;2.17;;;28.50;99.90;;;;;;5078071;27;20040;-59
2023/07/11 10:03:21;;;;;;;5.50;2.22;;;28.50;99.40;;;;;;5078443;27;20135;-59
2023/07/11 10:05:49;;;;;;;4.35;2.10;;;28.40;99.90;;;;;;5076870;27;20040;-59
2023/07/11 10:08:26;;;;;;;7.05;2.40;;;28.30;99.90;;;;;;5091569;27;20156;-59
2023/07/11 10:10:54;;;;;;;6.22;2.20;;;28.40;99.90;;;;;;5082852;27;20024;-61
2023/07/11 10:13:22;;;;;;;5.55;2.20;;;28.40;99.90;;;;;;5071228;28;20052;-59
2023/07/11 10:15:51;;;;;;;5.05;1.98;;;28.40;99.90;;;;;;5082148;27;20040;-59
2023/07/11 10:18:19;;;;;;;6.10;2.00;;;28.40;99.90;;;;;;5075070;27;20082;-59
2023/07/11 10:20:52;;;;;;;4.97;2.08;;;28.40;99.90;;;;;;5068205;28;20024;-59
2023/07/11 10:23:21;;;;;;;;;;;28.40;99.90;;;;;;5078108;27;20110;-59
2023/07/11 10:25:52;;;;;;;4.43;2.10;;;28.50;99.90;;;;;;5072397;28;19918;-59
2023/07/11 10:28:31;;;;;;;5.28;1.95;;;28.50;99.90;;;;;;5081159;27;20032;-59
2023/07/11 10:31:00;;;;;;;7.72;2.15;;;28.60;99.90;;;;;;5069738;28;20048;-59
2023/07/11 10:33:31;;;;;;;5.40;2.00;;;28.60;99.90;;;;;;5068679;27;20093;-59
2023/07/11 10:36:11;;;;;;;7.88;2.15;;;28.50;99.90;;;;;;5072454;27;20522;-59
2023/07/11 10:38:48;;;;;;;7.57;2.22;;;28.60;99.90;;;;;;5077262;28;20047;-59
2023/07/11 10:41:38;;;;;;;11.73;1.88;;;28.70;99.90;;;;;;5084122;27;20055;-59
2023/07/11 10:44:11;;;;;;;9.65;2.75;;;28.60;98.80;;;;;;5072664;27;20037;-59
2023/07/11 10:46:42;;;;;;;9.07;2.13;;;28.70;98.90;;;;;;5072729;27;20036;-60
2023/07/11 10:49:14;;;;;;;9.98;2.45;;;28.70;99.50;;;;;;5069902;27;20597;-59
2023/07/11 10:51:51;;;;;;;7.87;1.90;;;28.70;99.90;;;;;;5076133;27;20055;-59
2023/07/11 10:54:22;;;;;;;5.15;1.80;;;28.70;99.40;;;;;;5067958;27;20036;-59
2023/07/11 10:56:54;;;;;;;4.90;2.13;;;28.50;94.10;;;;;;5070113;28;20044;-59
2023/07/11 10:59:23;;;;;;;4.90;1.80;;;28.50;99.90;;;;;;5071904;27;20071;-59
2023/07/11 11:02:19;;;;;;;5.43;1.98;;;28.60;99.90;;;;;;5078420;27;20394;-59
2023/07/11 11:04:50;;;;;;;4.63;2.15;;;28.60;97.10;;;;;;5074245;28;20036;-60
2023/07/11 11:07:41;;;;;;;6.07;2.20;;;28.40;97.30;;;;;;5069371;27;20040;-60
2023/07/11 11:10:44;;;;;;;7.82;2.10;;;28.80;97.60;;;;;;5073343;27;20056;-60
2023/07/11 11:13:22;;;;;;;7.18;2.13;;;28.90;94.90;;;;;;5007599;28;20056;-60
2023/07/11 11:15:56;;;;;;;7.45;2.20;;;29.00;97.00;;;;;;5069604;27;20451;-59
2023/07/11 11:18:40;;;;;;;6.65;2.25;;;28.90;98.40;;;;;;5073119;27;20044;-60
2023/07/11 11:21:11;;;;;;;;;;;29.00;96.70;;;;;;5072041;27;20033;-60
2023/07/11 11:24:09;;;;;;;6.05;2.35;;;29.10;98.70;;;;;;5073632;27;20011;-60
2023/07/11 11:27:03;;;;;;;7.35;2.13;;;29.30;99.30;;;;;;5072508;27;20480;-60
2023/07/11 11:30:19;;;;;;;10.70;2.35;;;29.20;99.90;;;;;;5077516;28;20119;-60
2023/07/11 11:32:57;;;;;;;4.63;2.05;;;29.30;99.90;;;;;;5044800;27;20044;-60
2023/07/11 11:35:39;;;;;;;7.40;2.00;;;29.40;98.70;;;;;;5071352;27;20543;-60
2023/07/11 11:38:28;;;;;;;6.35;2.20;;;29.40;99.20;;;;;;5079727;27;20403;-60
2023/07/11 11:41:01;;;;;;;7.97;2.15;;;29.40;98.00;;;;;;5073891;28;20156;-60
2023/07/11 11:43:27;;;;;;;5.90;2.20;;;29.30;99.20;;;;;;5069908;27;21065;-60
2023/07/11 11:45:53;;;;;;;7.20;2.30;;;29.30;99.90;;;;;;5082353;27;20289;-60
2023/07/11 11:48:22;;;;;;;4.63;2.13;;;29.40;97.50;;;;;;5071832;27;20067;-59
2023/07/11 11:50:49;;;;;;;7.28;2.22;;;29.40;99.10;;;;;;5079647;27;20040;-60
2023/07/11 11:53:33;;;;;;;7.03;2.30;;;29.50;99.90;;;;;;5077274;27;20142;-60
2023/07/11 11:56:02;;;;;;;9.50;2.70;;;29.40;99.10;;;;;;5071945;28;20119;-60
2023/07/11 11:58:30;;;;;;;4.72;2.25;;;29.50;99.20;;;;;;5072057;27;20478;-60
2023/07/11 12:00:57;;;;;;;5.47;1.90;;;29.40;99.50;;;;;;5072135;28;20032;-59
2023/07/11 12:03:43;;;;;;;5.88;2.10;;;29.40;97.70;;;;;;5073264;27;20382;-60
2023/07/11 12:06:34;;;;;;;5.35;2.08;;;29.60;98.50;;;;;;5068145;28;20043;-60
2023/07/11 12:09:18;;;;;;;8.18;2.20;;;29.60;98.00;;;;;;5070405;28;20037;-61
2023/07/11 12:11:45;;;;;;;6.78;2.15;;;29.60;99.90;;;;;;5079767;27;20044;-61
2023/07/11 12:14:26;;;;;;;5.50;1.98;;;29.80;99.90;;;;;;5069383;28;20036;-60
2023/07/11 12:16:52;;;;;;;6.28;2.10;;;29.70;99.50;;;;;;5078635;27;20043;-60
2023/07/11 12:19:37;;;;;;;4.38;1.92;;;29.60;99.50;;;;;;5074648;27;20618;-61
2023/07/11 12:22:06;;;;;;;6.07;2.10;;;29.60;98.20;;;;;;5080628;27;20032;-60
2023/07/11 12:24:32;;;;;;;5.55;2.05;;;29.60;97.50;;;;;;5083738;27;20503;-60
2023/07/11 12:27:09;;;;;;;4.28;1.52;;;29.70;98.10;;;;;;5072972;28;20028;-60
2023/07/11 12:29:34;;;;;;;4.15;1.88;;;29.60;96.40;;;;;;5074359;28;20645;-60
2023/07/11 12:32:28;;;;;;;4.95;1.92;;;29.60;98.40;;;;;;5072968;28;20098;-60
2023/07/11 12:34:57;;;;;;;;;;;29.60;98.60;;;;;;5082844;28;20046;-60
2023/07/11 12:37:27;;;;;;;4.95;1.70;;;29.60;99.20;;;;;;5075033;27;19912;-60
2023/07/11 12:40:08;;;;;;;7.03;2.10;;;29.60;99.10;;;;;;5075421;27;20064;-60
2023/07/11 12:42:59;;;;;;;5.15;2.08;;;29.70;99.90;;;;;;5069565;28;20468;-60
2023/07/11 12:45:32;;;;;;;7.78;2.20;;;29.60;97.90;;;;;;5072332;28;20101;-61
2023/07/11 12:48:26;;;;;;;3.00;1.77;;;29.70;97.80;;;;;;5067448;28;20118;-60
2023/07/11 12:50:55;;;;;;;;;;;29.70;99.90;;;;;;5075760;27;20029;-60
2023/07/11 12:53:22;;;;;;;6.82;1.92;;;29.70;99.90;;;;;;5072219;27;20368;-60
2023/07/11 12:55:50;;;;;;;3.50;1.70;;;29.60;99.90;;;;;;5071206;28;20032;-61
2023/07/11 12:58:19;;;;;;;6.47;1.83;;;29.80;99.90;;;;;;5068207;28;20117;-61
2023/07/11 13:00:45;;;;;;;5.88;1.85;;;29.80;99.40;;;;;;5070097;27;20040;-60